sensor_id;sensor_type;location;lat;lon;timestamp;P1;durP1;ratioP1;P2;durP2;ratioP2
28483;SDS011;15704;48.834;8.736;2022-10-17T00:00:17;3.20;;;2.47;;
28483;SDS011;15704;48.834;8.736;2022-10-17T00:02:43;3.92;;;2.28;;
28483;SDS011;15704;48.834;8.736;2022-10-17T00:05:08;3.63;;;2.35;;
28483;SDS011;15704;48.834;8.736;2022-10-17T00:07:36;3.88;;;2.30;;
28483;SDS011;15704;48.834;8.736;2022-10-17T00:10:02;3.38;;;2.60;;
28483;SDS011;15704;48.834;8.736;2022-10-17T00:12:29;2.88;;;1.90;;
28483;SDS011;15704;48.834;8.736;2022-10-17T00:14:55;4.78;;;2.22;;
28483;SDS011;15704;48.834;8.736;2022-10-17T00:17:21;7.63;;;2.03;;
28483;SDS011;15704;48.834;8.736;2022-10-17T00:19:46;3.45;;;2.20;;
28483;SDS011;15704;48.834;8.736;2022-10-17T00:22:12;3.30;;;2.38;;
28483;SDS011;15704;48.834;8.736;2022-10-17T00:24:37;2.70;;;2.17;;
28483;SDS011;15704;48.834;8.736;2022-10-17T00:27:03;3.00;;;2.08;;
28483;SDS011;15704;48.834;8.736;2022-10-17T00:29:29;3.25;;;2.05;;
28483;SDS011;15704;48.834;8.736;2022-10-17T00:31:55;4.30;;;2.20;;
28483;SDS011;15704;48.834;8.736;2022-10-17T00:34:21;3.67;;;1.88;;
28483;SDS011;15704;48.834;8.736;2022-10-17T00:36:47;2.78;;;2.00;;
28483;SDS011;15704;48.834;8.736;2022-10-17T00:39:12;2.63;;;2.00;;
28483;SDS011;15704;48.834;8.736;2022-10-17T00:41:38;3.00;;;2.15;;
28483;SDS011;15704;48.834;8.736;2022-10-17T00:44:05;3.17;;;2.10;;
28483;SDS011;15704;48.834;8.736;2022-10-17T00:46:51;4.25;;;2.17;;
28483;SDS011;15704;48.834;8.736;2022-10-17T00:49:17;2.80;;;1.73;;
28483;SDS011;15704;48.834;8.736;2022-10-17T00:51:48;2.05;;;1.80;;
28483;SDS011;15704;48.834;8.736;2022-10-17T00:54:18;2.90;;;1.98;;
28483;SDS011;15704;48.834;8.736;2022-10-17T00:56:47;3.78;;;1.95;;
28483;SDS011;15704;48.834;8.736;2022-10-17T00:59:13;4.60;;;2.30;;
28483;SDS011;15704;48.834;8.736;2022-10-17T01:01:41;3.00;;;1.83;;
28483;SDS011;15704;48.834;8.736;2022-10-17T01:04:14;2.15;;;1.70;;
28483;SDS011;15704;48.834;8.736;2022-10-17T01:06:41;3.85;;;1.98;;
28483;SDS011;15704;48.834;8.736;2022-10-17T01:09:06;2.42;;;1.90;;
28483;SDS011;15704;48.834;8.736;2022-10-17T01:11:40;2.88;;;1.83;;
28483;SDS011;15704;48.834;8.736;2022-10-17T01:16:59;3.03;;;2.00;;
28483;SDS011;15704;48.834;8.736;2022-10-17T01:22:32;2.65;;;1.58;;
28483;SDS011;15704;48.834;8.736;2022-10-17T01:25:23;2.97;;;2.00;;
28483;SDS011;15704;48.834;8.736;2022-10-17T01:31:13;2.80;;;1.77;;
28483;SDS011;15704;48.834;8.736;2022-10-17T01:39:01;2.72;;;1.83;;
28483;SDS011;15704;48.834;8.736;2022-10-17T01:47:14;2.08;;;1.45;;
28483;SDS011;15704;48.834;8.736;2022-10-17T01:49:44;3.30;;;1.92;;
28483;SDS011;15704;48.834;8.736;2022-10-17T01:52:23;2.03;;;1.63;;
28483;SDS011;15704;48.834;8.736;2022-10-17T01:54:54;1.95;;;1.60;;
28483;SDS011;15704;48.834;8.736;2022-10-17T01:57:37;3.25;;;1.80;;
28483;SDS011;15704;48.834;8.736;2022-10-17T02:00:07;2.08;;;1.75;;
28483;SDS011;15704;48.834;8.736;2022-10-17T02:02:36;1.85;;;1.60;;
28483;SDS011;15704;48.834;8.736;2022-10-17T02:05:03;1.88;;;1.48;;
28483;SDS011;15704;48.834;8.736;2022-10-17T02:07:29;2.85;;;1.63;;
28483;SDS011;15704;48.834;8.736;2022-10-17T02:09:54;2.65;;;1.80;;
28483;SDS011;15704;48.834;8.736;2022-10-17T02:12:34;2.53;;;1.75;;
28483;SDS011;15704;48.834;8.736;2022-10-17T02:20:36;2.88;;;1.80;;
28483;SDS011;15704;48.834;8.736;2022-10-17T02:23:19;2.05;;;1.80;;
28483;SDS011;15704;48.834;8.736;2022-10-17T02:25:57;2.10;;;1.70;;
28483;SDS011;15704;48.834;8.736;2022-10-17T02:33:55;2.13;;;1.70;;
28483;SDS011;15704;48.834;8.736;2022-10-17T02:36:28;2.47;;;1.80;;
28483;SDS011;15704;48.834;8.736;2022-10-17T02:38:58;2.03;;;1.52;;
28483;SDS011;15704;48.834;8.736;2022-10-17T02:41:26;2.35;;;1.73;;
28483;SDS011;15704;48.834;8.736;2022-10-17T02:43:54;2.22;;;1.85;;
28483;SDS011;15704;48.834;8.736;2022-10-17T02:46:20;2.17;;;1.75;;
28483;SDS011;15704;48.834;8.736;2022-10-17T02:49:02;2.25;;;1.67;;
28483;SDS011;15704;48.834;8.736;2022-10-17T02:52:00;2.33;;;1.70;;
28483;SDS011;15704;48.834;8.736;2022-10-17T02:54:36;1.92;;;1.50;;
28483;SDS011;15704;48.834;8.736;2022-10-17T02:57:24;3.58;;;1.60;;
28483;SDS011;15704;48.834;8.736;2022-10-17T02:59:57;1.92;;;1.38;;
28483;SDS011;15704;48.834;8.736;2022-10-17T03:02:26;2.47;;;1.38;;
28483;SDS011;15704;48.834;8.736;2022-10-17T03:04:51;1.98;;;1.30;;
28483;SDS011;15704;48.834;8.736;2022-10-17T03:07:17;2.63;;;1.60;;
28483;SDS011;15704;48.834;8.736;2022-10-17T03:09:43;2.65;;;1.58;;
28483;SDS011;15704;48.834;8.736;2022-10-17T03:12:08;3.22;;;1.88;;
28483;SDS011;15704;48.834;8.736;2022-10-17T03:14:34;2.67;;;1.65;;
28483;SDS011;15704;48.834;8.736;2022-10-17T03:16:59;1.70;;;1.50;;
28483;SDS011;15704;48.834;8.736;2022-10-17T03:19:25;2.22;;;1.60;;
28483;SDS011;15704;48.834;8.736;2022-10-17T03:21:51;4.65;;;1.55;;
28483;SDS011;15704;48.834;8.736;2022-10-17T03:24:16;1.58;;;1.27;;
28483;SDS011;15704;48.834;8.736;2022-10-17T03:26:42;2.85;;;1.77;;
28483;SDS011;15704;48.834;8.736;2022-10-17T03:29:07;4.40;;;1.60;;
28483;SDS011;15704;48.834;8.736;2022-10-17T03:31:33;1.95;;;1.30;;
28483;SDS011;15704;48.834;8.736;2022-10-17T03:34:00;2.33;;;1.60;;
28483;SDS011;15704;48.834;8.736;2022-10-17T03:36:26;2.85;;;1.80;;
28483;SDS011;15704;48.834;8.736;2022-10-17T03:38:52;3.08;;;1.80;;
28483;SDS011;15704;48.834;8.736;2022-10-17T03:41:18;2.28;;;1.50;;
28483;SDS011;15704;48.834;8.736;2022-10-17T03:43:44;2.00;;;1.42;;
28483;SDS011;15704;48.834;8.736;2022-10-17T03:46:10;1.63;;;1.33;;
28483;SDS011;15704;48.834;8.736;2022-10-17T03:48:36;1.85;;;1.58;;
28483;SDS011;15704;48.834;8.736;2022-10-17T03:51:03;4.03;;;1.40;;
28483;SDS011;15704;48.834;8.736;2022-10-17T03:53:30;1.92;;;1.58;;
28483;SDS011;15704;48.834;8.736;2022-10-17T03:55:57;1.88;;;1.40;;
28483;SDS011;15704;48.834;8.736;2022-10-17T03:58:37;1.83;;;1.38;;
28483;SDS011;15704;48.834;8.736;2022-10-17T04:01:03;1.50;;;1.40;;
28483;SDS011;15704;48.834;8.736;2022-10-17T04:03:30;1.98;;;1.55;;
28483;SDS011;15704;48.834;8.736;2022-10-17T04:05:59;2.20;;;1.60;;
28483;SDS011;15704;48.834;8.736;2022-10-17T04:08:26;2.22;;;1.48;;
28483;SDS011;15704;48.834;8.736;2022-10-17T04:10:52;1.58;;;1.30;;
28483;SDS011;15704;48.834;8.736;2022-10-17T04:13:21;2.45;;;1.80;;
28483;SDS011;15704;48.834;8.736;2022-10-17T04:15:57;2.78;;;1.33;;
28483;SDS011;15704;48.834;8.736;2022-10-17T04:18:27;1.45;;;1.27;;
28483;SDS011;15704;48.834;8.736;2022-10-17T04:20:53;1.50;;;1.35;;
28483;SDS011;15704;48.834;8.736;2022-10-17T04:23:19;3.10;;;1.77;;
28483;SDS011;15704;48.834;8.736;2022-10-17T04:25:45;1.65;;;1.40;;
28483;SDS011;15704;48.834;8.736;2022-10-17T04:28:10;1.40;;;1.30;;
28483;SDS011;15704;48.834;8.736;2022-10-17T04:30:36;1.63;;;1.42;;
28483;SDS011;15704;48.834;8.736;2022-10-17T04:33:02;1.50;;;1.40;;
28483;SDS011;15704;48.834;8.736;2022-10-17T04:35:28;1.42;;;1.33;;
28483;SDS011;15704;48.834;8.736;2022-10-17T04:37:53;1.60;;;1.30;;
28483;SDS011;15704;48.834;8.736;2022-10-17T04:40:19;1.52;;;1.35;;
28483;SDS011;15704;48.834;8.736;2022-10-17T04:42:45;1.48;;;1.27;;
28483;SDS011;15704;48.834;8.736;2022-10-17T04:45:11;1.92;;;1.38;;
28483;SDS011;15704;48.834;8.736;2022-10-17T04:47:37;2.17;;;1.60;;
28483;SDS011;15704;48.834;8.736;2022-10-17T04:50:03;2.90;;;1.65;;
28483;SDS011;15704;48.834;8.736;2022-10-17T04:52:29;1.80;;;1.30;;
28483;SDS011;15704;48.834;8.736;2022-10-17T04:54:55;2.42;;;1.50;;
28483;SDS011;15704;48.834;8.736;2022-10-17T04:57:21;1.50;;;1.30;;
28483;SDS011;15704;48.834;8.736;2022-10-17T04:59:47;1.58;;;1.30;;
28483;SDS011;15704;48.834;8.736;2022-10-17T05:02:13;1.33;;;1.23;;
28483;SDS011;15704;48.834;8.736;2022-10-17T05:04:41;1.55;;;1.35;;
28483;SDS011;15704;48.834;8.736;2022-10-17T05:07:07;1.88;;;1.35;;
28483;SDS011;15704;48.834;8.736;2022-10-17T05:09:33;1.80;;;1.30;;
28483;SDS011;15704;48.834;8.736;2022-10-17T05:11:58;1.55;;;1.38;;
28483;SDS011;15704;48.834;8.736;2022-10-17T05:14:24;4.72;;;1.50;;
28483;SDS011;15704;48.834;8.736;2022-10-17T05:16:50;2.38;;;1.50;;
28483;SDS011;15704;48.834;8.736;2022-10-17T05:19:15;2.08;;;1.38;;
28483;SDS011;15704;48.834;8.736;2022-10-17T05:21:42;1.60;;;1.50;;
28483;SDS011;15704;48.834;8.736;2022-10-17T05:24:08;2.65;;;1.38;;
28483;SDS011;15704;48.834;8.736;2022-10-17T05:26:35;3.40;;;1.20;;
28483;SDS011;15704;48.834;8.736;2022-10-17T05:29:00;1.40;;;1.30;;
28483;SDS011;15704;48.834;8.736;2022-10-17T05:31:29;1.40;;;1.30;;
28483;SDS011;15704;48.834;8.736;2022-10-17T05:33:59;2.63;;;1.23;;
28483;SDS011;15704;48.834;8.736;2022-10-17T05:36:28;1.33;;;1.23;;
28483;SDS011;15704;48.834;8.736;2022-10-17T05:38:53;1.50;;;1.30;;
28483;SDS011;15704;48.834;8.736;2022-10-17T05:41:19;3.03;;;1.77;;
28483;SDS011;15704;48.834;8.736;2022-10-17T05:43:45;1.90;;;1.40;;
28483;SDS011;15704;48.834;8.736;2022-10-17T05:46:11;1.70;;;1.25;;
28483;SDS011;15704;48.834;8.736;2022-10-17T05:48:36;1.88;;;1.33;;
28483;SDS011;15704;48.834;8.736;2022-10-17T05:51:06;2.25;;;1.38;;
28483;SDS011;15704;48.834;8.736;2022-10-17T05:53:34;4.10;;;1.75;;
28483;SDS011;15704;48.834;8.736;2022-10-17T05:56:03;1.92;;;1.50;;
28483;SDS011;15704;48.834;8.736;2022-10-17T05:58:30;2.10;;;1.50;;
28483;SDS011;15704;48.834;8.736;2022-10-17T06:01:00;1.45;;;1.33;;
28483;SDS011;15704;48.834;8.736;2022-10-17T06:03:27;1.30;;;1.10;;
28483;SDS011;15704;48.834;8.736;2022-10-17T06:05:53;1.98;;;1.20;;
28483;SDS011;15704;48.834;8.736;2022-10-17T06:08:19;1.65;;;1.10;;
28483;SDS011;15704;48.834;8.736;2022-10-17T06:10:46;3.58;;;1.40;;
28483;SDS011;15704;48.834;8.736;2022-10-17T06:13:13;1.20;;;1.10;;
28483;SDS011;15704;48.834;8.736;2022-10-17T06:15:39;1.60;;;1.25;;
28483;SDS011;15704;48.834;8.736;2022-10-17T06:18:04;2.28;;;1.40;;
28483;SDS011;15704;48.834;8.736;2022-10-17T06:20:30;1.60;;;1.40;;
28483;SDS011;15704;48.834;8.736;2022-10-17T06:22:56;1.67;;;1.40;;
28483;SDS011;15704;48.834;8.736;2022-10-17T06:25:21;2.05;;;1.20;;
28483;SDS011;15704;48.834;8.736;2022-10-17T06:27:47;1.33;;;1.20;;
28483;SDS011;15704;48.834;8.736;2022-10-17T06:30:12;1.88;;;1.23;;
28483;SDS011;15704;48.834;8.736;2022-10-17T06:32:38;1.35;;;1.25;;
28483;SDS011;15704;48.834;8.736;2022-10-17T06:35:03;1.10;;;1.00;;
28483;SDS011;15704;48.834;8.736;2022-10-17T06:37:30;1.73;;;1.33;;
28483;SDS011;15704;48.834;8.736;2022-10-17T06:39:57;2.92;;;1.50;;
28483;SDS011;15704;48.834;8.736;2022-10-17T06:42:23;1.25;;;1.15;;
28483;SDS011;15704;48.834;8.736;2022-10-17T06:44:48;1.42;;;1.30;;
28483;SDS011;15704;48.834;8.736;2022-10-17T06:47:14;1.55;;;1.35;;
28483;SDS011;15704;48.834;8.736;2022-10-17T06:49:39;4.05;;;1.45;;
28483;SDS011;15704;48.834;8.736;2022-10-17T06:52:05;1.63;;;1.27;;
28483;SDS011;15704;48.834;8.736;2022-10-17T06:54:30;1.98;;;1.30;;
28483;SDS011;15704;48.834;8.736;2022-10-17T06:56:56;1.60;;;1.20;;
28483;SDS011;15704;48.834;8.736;2022-10-17T06:59:22;1.40;;;1.23;;
28483;SDS011;15704;48.834;8.736;2022-10-17T07:01:47;1.17;;;1.08;;
28483;SDS011;15704;48.834;8.736;2022-10-17T07:04:13;0.93;;;0.88;;
28483;SDS011;15704;48.834;8.736;2022-10-17T07:06:38;1.40;;;1.30;;
28483;SDS011;15704;48.834;8.736;2022-10-17T07:09:04;1.20;;;1.10;;
28483;SDS011;15704;48.834;8.736;2022-10-17T07:11:31;1.33;;;1.20;;
28483;SDS011;15704;48.834;8.736;2022-10-17T07:13:57;1.55;;;1.40;;
28483;SDS011;15704;48.834;8.736;2022-10-17T07:16:23;0.95;;;0.85;;
28483;SDS011;15704;48.834;8.736;2022-10-17T07:18:49;1.30;;;1.20;;
28483;SDS011;15704;48.834;8.736;2022-10-17T07:21:15;0.93;;;0.93;;
28483;SDS011;15704;48.834;8.736;2022-10-17T07:23:41;1.40;;;1.30;;
28483;SDS011;15704;48.834;8.736;2022-10-17T07:26:09;1.15;;;1.05;;
28483;SDS011;15704;48.834;8.736;2022-10-17T07:28:36;1.50;;;1.35;;
28483;SDS011;15704;48.834;8.736;2022-10-17T07:31:07;1.80;;;1.30;;
28483;SDS011;15704;48.834;8.736;2022-10-17T07:33:38;1.75;;;1.40;;
28483;SDS011;15704;48.834;8.736;2022-10-17T07:36:05;1.33;;;1.20;;
28483;SDS011;15704;48.834;8.736;2022-10-17T07:38:31;1.02;;;0.98;;
28483;SDS011;15704;48.834;8.736;2022-10-17T07:40:57;1.40;;;1.25;;
28483;SDS011;15704;48.834;8.736;2022-10-17T07:43:29;1.73;;;1.30;;
28483;SDS011;15704;48.834;8.736;2022-10-17T07:45:55;1.30;;;1.20;;
28483;SDS011;15704;48.834;8.736;2022-10-17T07:48:21;0.90;;;0.90;;
28483;SDS011;15704;48.834;8.736;2022-10-17T07:50:48;1.40;;;1.20;;
28483;SDS011;15704;48.834;8.736;2022-10-17T07:53:14;1.33;;;1.23;;
28483;SDS011;15704;48.834;8.736;2022-10-17T07:55:40;2.35;;;1.20;;
28483;SDS011;15704;48.834;8.736;2022-10-17T07:58:06;4.68;;;1.00;;
28483;SDS011;15704;48.834;8.736;2022-10-17T08:00:33;1.80;;;1.20;;
28483;SDS011;15704;48.834;8.736;2022-10-17T08:02:59;1.48;;;1.20;;
28483;SDS011;15704;48.834;8.736;2022-10-17T08:05:25;1.45;;;1.05;;
28483;SDS011;15704;48.834;8.736;2022-10-17T08:07:50;1.45;;;1.20;;
28483;SDS011;15704;48.834;8.736;2022-10-17T08:10:16;1.30;;;1.20;;
28483;SDS011;15704;48.834;8.736;2022-10-17T08:12:42;1.88;;;1.48;;
28483;SDS011;15704;48.834;8.736;2022-10-17T08:15:08;1.73;;;1.20;;
28483;SDS011;15704;48.834;8.736;2022-10-17T08:17:35;1.20;;;1.10;;
28483;SDS011;15704;48.834;8.736;2022-10-17T08:20:02;1.45;;;1.20;;
28483;SDS011;15704;48.834;8.736;2022-10-17T08:22:29;1.13;;;1.02;;
28483;SDS011;15704;48.834;8.736;2022-10-17T08:24:54;1.50;;;1.27;;
28483;SDS011;15704;48.834;8.736;2022-10-17T08:27:20;1.20;;;1.10;;
28483;SDS011;15704;48.834;8.736;2022-10-17T08:29:49;1.30;;;1.20;;
28483;SDS011;15704;48.834;8.736;2022-10-17T08:32:22;1.60;;;1.30;;
28483;SDS011;15704;48.834;8.736;2022-10-17T08:34:50;1.25;;;1.10;;
28483;SDS011;15704;48.834;8.736;2022-10-17T08:37:19;1.20;;;1.10;;
28483;SDS011;15704;48.834;8.736;2022-10-17T08:39:46;1.63;;;1.27;;
28483;SDS011;15704;48.834;8.736;2022-10-17T08:45:01;3.30;;;1.50;;
28483;SDS011;15704;48.834;8.736;2022-10-17T08:47:36;3.78;;;1.40;;
28483;SDS011;15704;48.834;8.736;2022-10-17T08:50:03;3.60;;;1.45;;
28483;SDS011;15704;48.834;8.736;2022-10-17T08:52:46;3.80;;;1.92;;
28483;SDS011;15704;48.834;8.736;2022-10-17T08:55:17;3.83;;;1.60;;
28483;SDS011;15704;48.834;8.736;2022-10-17T08:57:51;4.95;;;1.98;;
28483;SDS011;15704;48.834;8.736;2022-10-17T09:00:18;3.40;;;1.60;;
28483;SDS011;15704;48.834;8.736;2022-10-17T09:05:35;5.53;;;1.95;;
28483;SDS011;15704;48.834;8.736;2022-10-17T09:08:46;12.13;;;1.80;;
28483;SDS011;15704;48.834;8.736;2022-10-17T09:13:56;4.20;;;2.08;;
28483;SDS011;15704;48.834;8.736;2022-10-17T09:19:16;3.60;;;1.80;;
28483;SDS011;15704;48.834;8.736;2022-10-17T09:21:54;2.50;;;1.48;;
28483;SDS011;15704;48.834;8.736;2022-10-17T09:26:55;7.75;;;1.80;;
28483;SDS011;15704;48.834;8.736;2022-10-17T09:29:22;7.88;;;2.28;;
28483;SDS011;15704;48.834;8.736;2022-10-17T09:31:55;7.00;;;2.33;;
28483;SDS011;15704;48.834;8.736;2022-10-17T09:34:26;3.88;;;1.38;;
28483;SDS011;15704;48.834;8.736;2022-10-17T09:36:53;4.75;;;1.95;;
28483;SDS011;15704;48.834;8.736;2022-10-17T09:39:22;4.55;;;1.58;;
28483;SDS011;15704;48.834;8.736;2022-10-17T09:41:52;4.18;;;2.00;;
28483;SDS011;15704;48.834;8.736;2022-10-17T09:44:19;3.30;;;1.60;;
28483;SDS011;15704;48.834;8.736;2022-10-17T09:49:32;3.25;;;1.70;;
28483;SDS011;15704;48.834;8.736;2022-10-17T09:52:00;2.67;;;1.60;;
28483;SDS011;15704;48.834;8.736;2022-10-17T09:54:32;2.63;;;1.65;;
28483;SDS011;15704;48.834;8.736;2022-10-17T10:02:21;3.33;;;1.50;;
28483;SDS011;15704;48.834;8.736;2022-10-17T10:07:19;2.92;;;1.50;;
28483;SDS011;15704;48.834;8.736;2022-10-17T10:09:48;4.13;;;1.60;;
28483;SDS011;15704;48.834;8.736;2022-10-17T10:12:24;4.25;;;1.90;;
28483;SDS011;15704;48.834;8.736;2022-10-17T10:14:52;4.47;;;1.70;;
28483;SDS011;15704;48.834;8.736;2022-10-17T10:17:25;4.45;;;1.80;;
28483;SDS011;15704;48.834;8.736;2022-10-17T10:19:51;4.25;;;1.52;;
28483;SDS011;15704;48.834;8.736;2022-10-17T10:22:18;4.85;;;1.60;;
28483;SDS011;15704;48.834;8.736;2022-10-17T10:25:05;7.10;;;1.60;;
28483;SDS011;15704;48.834;8.736;2022-10-17T10:27:30;4.20;;;1.70;;
28483;SDS011;15704;48.834;8.736;2022-10-17T10:29:57;3.88;;;1.92;;
28483;SDS011;15704;48.834;8.736;2022-10-17T10:34:57;6.93;;;1.85;;
28483;SDS011;15704;48.834;8.736;2022-10-17T10:37:38;2.78;;;1.50;;
28483;SDS011;15704;48.834;8.736;2022-10-17T10:40:23;3.50;;;1.75;;
28483;SDS011;15704;48.834;8.736;2022-10-17T10:43:01;4.05;;;1.60;;
28483;SDS011;15704;48.834;8.736;2022-10-17T10:48:01;2.15;;;1.52;;
28483;SDS011;15704;48.834;8.736;2022-10-17T10:58:50;3.78;;;1.65;;
28483;SDS011;15704;48.834;8.736;2022-10-17T11:04:11;3.08;;;1.67;;
28483;SDS011;15704;48.834;8.736;2022-10-17T11:06:48;5.30;;;1.42;;
28483;SDS011;15704;48.834;8.736;2022-10-17T11:12:05;4.00;;;1.52;;
28483;SDS011;15704;48.834;8.736;2022-10-17T11:14:39;3.50;;;1.35;;
28483;SDS011;15704;48.834;8.736;2022-10-17T11:23:02;8.82;;;1.90;;
28483;SDS011;15704;48.834;8.736;2022-10-17T11:25:38;2.97;;;1.58;;
28483;SDS011;15704;48.834;8.736;2022-10-17T11:28:12;3.15;;;1.60;;
28483;SDS011;15704;48.834;8.736;2022-10-17T11:31:05;25.52;;;2.63;;
28483;SDS011;15704;48.834;8.736;2022-10-17T11:33:41;7.35;;;2.17;;
28483;SDS011;15704;48.834;8.736;2022-10-17T11:36:18;3.58;;;1.70;;
28483;SDS011;15704;48.834;8.736;2022-10-17T11:41:42;5.82;;;1.40;;
28483;SDS011;15704;48.834;8.736;2022-10-17T11:46:47;2.45;;;1.80;;
28483;SDS011;15704;48.834;8.736;2022-10-17T11:49:19;4.18;;;1.80;;
28483;SDS011;15704;48.834;8.736;2022-10-17T11:51:51;1.40;;;1.30;;
28483;SDS011;15704;48.834;8.736;2022-10-17T11:57:02;10.57;;;2.28;;
28483;SDS011;15704;48.834;8.736;2022-10-17T12:02:31;2.97;;;1.50;;
28483;SDS011;15704;48.834;8.736;2022-10-17T12:05:42;4.55;;;1.58;;
28483;SDS011;15704;48.834;8.736;2022-10-17T12:11:16;2.78;;;1.90;;
28483;SDS011;15704;48.834;8.736;2022-10-17T12:13:54;3.88;;;1.70;;
28483;SDS011;15704;48.834;8.736;2022-10-17T12:19:17;5.50;;;1.50;;
28483;SDS011;15704;48.834;8.736;2022-10-17T12:25:02;4.00;;;1.88;;
28483;SDS011;15704;48.834;8.736;2022-10-17T12:27:38;12.25;;;3.47;;
28483;SDS011;15704;48.834;8.736;2022-10-17T12:32:55;8.65;;;3.92;;
28483;SDS011;15704;48.834;8.736;2022-10-17T12:35:46;12.77;;;4.20;;
28483;SDS011;15704;48.834;8.736;2022-10-17T12:38:22;10.35;;;3.47;;
28483;SDS011;15704;48.834;8.736;2022-10-17T12:40:50;7.65;;;3.55;;
28483;SDS011;15704;48.834;8.736;2022-10-17T12:51:00;6.82;;;2.97;;
28483;SDS011;15704;48.834;8.736;2022-10-17T12:53:30;6.07;;;2.70;;
28483;SDS011;15704;48.834;8.736;2022-10-17T12:56:10;5.70;;;2.72;;
28483;SDS011;15704;48.834;8.736;2022-10-17T12:58:58;4.55;;;2.58;;
28483;SDS011;15704;48.834;8.736;2022-10-17T13:01:28;6.05;;;2.78;;
28483;SDS011;15704;48.834;8.736;2022-10-17T13:03:56;5.03;;;2.30;;
28483;SDS011;15704;48.834;8.736;2022-10-17T13:06:27;4.32;;;2.58;;
28483;SDS011;15704;48.834;8.736;2022-10-17T13:08:56;4.32;;;2.15;;
28483;SDS011;15704;48.834;8.736;2022-10-17T13:11:24;4.78;;;2.10;;
28483;SDS011;15704;48.834;8.736;2022-10-17T13:13:53;4.38;;;1.95;;
28483;SDS011;15704;48.834;8.736;2022-10-17T13:16:29;5.55;;;2.53;;
28483;SDS011;15704;48.834;8.736;2022-10-17T13:18:55;2.35;;;1.80;;
28483;SDS011;15704;48.834;8.736;2022-10-17T13:21:21;3.25;;;1.77;;
28483;SDS011;15704;48.834;8.736;2022-10-17T13:23:47;3.15;;;1.52;;
28483;SDS011;15704;48.834;8.736;2022-10-17T13:31:37;3.95;;;2.00;;
28483;SDS011;15704;48.834;8.736;2022-10-17T13:34:22;4.82;;;1.67;;
28483;SDS011;15704;48.834;8.736;2022-10-17T13:36:50;9.18;;;2.10;;
28483;SDS011;15704;48.834;8.736;2022-10-17T13:39:22;3.28;;;1.92;;
28483;SDS011;15704;48.834;8.736;2022-10-17T13:41:51;3.23;;;1.67;;
28483;SDS011;15704;48.834;8.736;2022-10-17T13:44:27;4.03;;;1.80;;
28483;SDS011;15704;48.834;8.736;2022-10-17T13:46:57;3.10;;;1.85;;
28483;SDS011;15704;48.834;8.736;2022-10-17T13:49:30;4.45;;;1.63;;
28483;SDS011;15704;48.834;8.736;2022-10-17T13:52:12;3.28;;;1.83;;
28483;SDS011;15704;48.834;8.736;2022-10-17T13:54:42;2.20;;;1.45;;
28483;SDS011;15704;48.834;8.736;2022-10-17T13:59:44;3.50;;;1.83;;
28483;SDS011;15704;48.834;8.736;2022-10-17T14:02:14;4.95;;;1.73;;
28483;SDS011;15704;48.834;8.736;2022-10-17T14:04:41;3.40;;;1.80;;
28483;SDS011;15704;48.834;8.736;2022-10-17T14:07:14;2.10;;;1.52;;
28483;SDS011;15704;48.834;8.736;2022-10-17T14:10:17;7.35;;;1.85;;
28483;SDS011;15704;48.834;8.736;2022-10-17T14:12:45;2.97;;;1.60;;
28483;SDS011;15704;48.834;8.736;2022-10-17T14:15:12;2.35;;;1.50;;
28483;SDS011;15704;48.834;8.736;2022-10-17T14:17:39;2.38;;;1.50;;
28483;SDS011;15704;48.834;8.736;2022-10-17T14:20:07;4.82;;;1.85;;
28483;SDS011;15704;48.834;8.736;2022-10-17T14:22:41;3.78;;;1.33;;
28483;SDS011;15704;48.834;8.736;2022-10-17T14:26:02;4.68;;;1.67;;
28483;SDS011;15704;48.834;8.736;2022-10-17T14:28:01;1.35;;;1.25;;
28483;SDS011;15704;48.834;8.736;2022-10-17T14:30:43;2.65;;;1.50;;
28483;SDS011;15704;48.834;8.736;2022-10-17T14:33:23;2.38;;;1.30;;
28483;SDS011;15704;48.834;8.736;2022-10-17T14:36:00;3.38;;;1.83;;
28483;SDS011;15704;48.834;8.736;2022-10-17T14:38:27;7.53;;;1.80;;
28483;SDS011;15704;48.834;8.736;2022-10-17T14:43:24;2.35;;;1.30;;
28483;SDS011;15704;48.834;8.736;2022-10-17T14:45:57;2.67;;;1.65;;
28483;SDS011;15704;48.834;8.736;2022-10-17T14:48:27;2.92;;;1.65;;
28483;SDS011;15704;48.834;8.736;2022-10-17T14:51:15;2.67;;;1.50;;
28483;SDS011;15704;48.834;8.736;2022-10-17T14:54:04;4.05;;;1.60;;
28483;SDS011;15704;48.834;8.736;2022-10-17T14:56:49;4.55;;;1.83;;
28483;SDS011;15704;48.834;8.736;2022-10-17T14:59:16;4.82;;;1.92;;
28483;SDS011;15704;48.834;8.736;2022-10-17T15:01:46;4.18;;;1.50;;
28483;SDS011;15704;48.834;8.736;2022-10-17T15:04:13;2.40;;;1.38;;
28483;SDS011;15704;48.834;8.736;2022-10-17T15:06:39;3.63;;;1.48;;
28483;SDS011;15704;48.834;8.736;2022-10-17T15:09:04;3.97;;;1.50;;
28483;SDS011;15704;48.834;8.736;2022-10-17T15:11:30;4.47;;;1.75;;
28483;SDS011;15704;48.834;8.736;2022-10-17T15:13:56;4.38;;;1.70;;
28483;SDS011;15704;48.834;8.736;2022-10-17T15:18:49;3.53;;;1.77;;
28483;SDS011;15704;48.834;8.736;2022-10-17T15:21:16;4.70;;;1.67;;
28483;SDS011;15704;48.834;8.736;2022-10-17T15:23:44;1.80;;;1.63;;
28483;SDS011;15704;48.834;8.736;2022-10-17T15:26:11;3.58;;;1.55;;
28483;SDS011;15704;48.834;8.736;2022-10-17T15:28:42;3.75;;;1.70;;
28483;SDS011;15704;48.834;8.736;2022-10-17T15:31:12;3.40;;;1.70;;
28483;SDS011;15704;48.834;8.736;2022-10-17T15:33:40;2.88;;;1.50;;
28483;SDS011;15704;48.834;8.736;2022-10-17T15:38:47;3.33;;;1.60;;
28483;SDS011;15704;48.834;8.736;2022-10-17T15:41:13;3.60;;;1.52;;
28483;SDS011;15704;48.834;8.736;2022-10-17T15:43:39;4.28;;;1.60;;
28483;SDS011;15704;48.834;8.736;2022-10-17T15:46:08;3.30;;;1.70;;
28483;SDS011;15704;48.834;8.736;2022-10-17T15:48:37;2.08;;;1.23;;
28483;SDS011;15704;48.834;8.736;2022-10-17T15:51:02;6.18;;;1.58;;
28483;SDS011;15704;48.834;8.736;2022-10-17T15:53:28;3.28;;;1.73;;
28483;SDS011;15704;48.834;8.736;2022-10-17T15:55:53;3.38;;;1.75;;
28483;SDS011;15704;48.834;8.736;2022-10-17T15:58:19;2.80;;;1.50;;
28483;SDS011;15704;48.834;8.736;2022-10-17T16:00:45;2.72;;;1.35;;
28483;SDS011;15704;48.834;8.736;2022-10-17T16:03:11;2.42;;;1.50;;
28483;SDS011;15704;48.834;8.736;2022-10-17T16:05:38;2.60;;;1.60;;
28483;SDS011;15704;48.834;8.736;2022-10-17T16:08:03;4.47;;;1.50;;
28483;SDS011;15704;48.834;8.736;2022-10-17T16:10:29;1.90;;;1.52;;
28483;SDS011;15704;48.834;8.736;2022-10-17T16:12:55;3.30;;;1.67;;
28483;SDS011;15704;48.834;8.736;2022-10-17T16:17:48;4.25;;;1.63;;
28483;SDS011;15704;48.834;8.736;2022-10-17T16:20:14;3.67;;;1.65;;
28483;SDS011;15704;48.834;8.736;2022-10-17T16:22:41;2.95;;;1.63;;
28483;SDS011;15704;48.834;8.736;2022-10-17T16:25:21;2.13;;;1.40;;
28483;SDS011;15704;48.834;8.736;2022-10-17T16:27:50;2.17;;;1.40;;
28483;SDS011;15704;48.834;8.736;2022-10-17T16:30:17;1.85;;;1.40;;
28483;SDS011;15704;48.834;8.736;2022-10-17T16:32:43;4.07;;;1.42;;
28483;SDS011;15704;48.834;8.736;2022-10-17T16:35:10;3.63;;;1.42;;
28483;SDS011;15704;48.834;8.736;2022-10-17T16:37:42;3.17;;;1.67;;
28483;SDS011;15704;48.834;8.736;2022-10-17T16:40:08;2.22;;;1.35;;
28483;SDS011;15704;48.834;8.736;2022-10-17T16:42:34;3.38;;;1.80;;
28483;SDS011;15704;48.834;8.736;2022-10-17T16:45:00;1.98;;;1.40;;
28483;SDS011;15704;48.834;8.736;2022-10-17T16:47:26;4.57;;;1.65;;
28483;SDS011;15704;48.834;8.736;2022-10-17T16:49:51;4.13;;;1.63;;
28483;SDS011;15704;48.834;8.736;2022-10-17T16:52:17;5.63;;;1.50;;
28483;SDS011;15704;48.834;8.736;2022-10-17T16:54:42;2.00;;;1.55;;
28483;SDS011;15704;48.834;8.736;2022-10-17T16:57:08;2.80;;;1.55;;
28483;SDS011;15704;48.834;8.736;2022-10-17T16:59:33;2.55;;;1.73;;
28483;SDS011;15704;48.834;8.736;2022-10-17T17:01:59;4.93;;;1.80;;
28483;SDS011;15704;48.834;8.736;2022-10-17T17:04:24;1.63;;;1.52;;
28483;SDS011;15704;48.834;8.736;2022-10-17T17:06:50;4.70;;;2.50;;
28483;SDS011;15704;48.834;8.736;2022-10-17T17:09:16;2.50;;;1.73;;